CheckWX is a tool to help pilots better visualize weather data.  It is not intended as a substitute for an official pre-flight weather briefing.

07:41:10 UTC

KCOE METAR
Coeur D'alene - Pappy Boyington Field Airport
Coeur D'alene, Idaho, USA
Current

34 mins ago

KCOE 060707Z AUTO 01005KT 1/4SM FG OVC003 03/03 A2966 RMK AO2
Observed
Apr-6 @ 07:07 UTC
Wind
  • 010° at 5 KTS
Visibility
Flight Rules
LIFR
Conditions
Fog
Cloud Levels
  • Overcast at 300' AGL
Temperature
C / 37°F
Dewpoint
C / 37°F
Humidity
100%
Altimeter
29.66" Hg
Pressure
1004.42 hPa
Previous

45 mins ago

KCOE 060656Z AUTO 01003KT 1 1/4SM BR OVC003 03/03 A2966 RMK AO2 VIS 1/2V5 SLP074 T00330028
Observed
Apr-6 @ 06:56 UTC
Wind
  • 010° at 3 KTS
Visibility
Flight Rules
LIFR
Conditions
Mist
Cloud Levels
  • Overcast at 300' AGL
Temperature
C / 37°F
Dewpoint
C / 37°F
Humidity
100%
Altimeter
29.66" Hg
Pressure
1004.42 hPa
Previous

2 hours ago

KCOE 060556Z AUTO 04005KT 10SM BKN003 OVC100 03/02 A2965 RMK AO2 SLP074 60000 T00280017 10056 20022 51003
Observed
Apr-6 @ 05:56 UTC
Wind
  • 040° at 5 KTS
Visibility
Flight Rules
LIFR
Cloud Levels
  • Broken at 300' AGL
  • Overcast at 10,000' AGL
Temperature
C / 37°F
Dewpoint
C / 36°F
Humidity
93%
Altimeter
29.65" Hg
Pressure
1004.02 hPa